sensor_id;sensor_type;location;lat;lon;timestamp;P1;durP1;ratioP1;P2;durP2;ratioP2
55835;SDS011;66908;50.988;4.780;2023-02-20T00:00:43;17.75;;;10.85;;
55835;SDS011;66908;50.988;4.780;2023-02-20T00:03:13;19.13;;;10.85;;
55835;SDS011;66908;50.988;4.780;2023-02-20T00:05:39;20.35;;;11.00;;
55835;SDS011;66908;50.988;4.780;2023-02-20T00:08:05;20.00;;;11.50;;
55835;SDS011;66908;50.988;4.780;2023-02-20T00:10:31;19.92;;;10.65;;
55835;SDS011;66908;50.988;4.780;2023-02-20T00:12:58;18.38;;;10.68;;
55835;SDS011;66908;50.988;4.780;2023-02-20T00:15:24;20.60;;;11.02;;
55835;SDS011;66908;50.988;4.780;2023-02-20T00:17:50;18.65;;;10.85;;
55835;SDS011;66908;50.988;4.780;2023-02-20T00:20:20;23.45;;;11.50;;
55835;SDS011;66908;50.988;4.780;2023-02-20T00:22:48;21.33;;;12.18;;
55835;SDS011;66908;50.988;4.780;2023-02-20T00:25:15;18.23;;;10.87;;
55835;SDS011;66908;50.988;4.780;2023-02-20T00:27:44;19.80;;;10.75;;
55835;SDS011;66908;50.988;4.780;2023-02-20T00:30:14;22.40;;;10.45;;
55835;SDS011;66908;50.988;4.780;2023-02-20T00:32:42;19.00;;;9.63;;
55835;SDS011;66908;50.988;4.780;2023-02-20T00:35:09;18.13;;;9.80;;
55835;SDS011;66908;50.988;4.780;2023-02-20T00:37:36;17.52;;;9.15;;
55835;SDS011;66908;50.988;4.780;2023-02-20T00:40:04;19.70;;;10.18;;
55835;SDS011;66908;50.988;4.780;2023-02-20T00:42:32;17.20;;;9.80;;
55835;SDS011;66908;50.988;4.780;2023-02-20T00:44:57;22.35;;;9.02;;
55835;SDS011;66908;50.988;4.780;2023-02-20T00:47:23;15.23;;;9.52;;
55835;SDS011;66908;50.988;4.780;2023-02-20T00:49:49;18.02;;;9.75;;
55835;SDS011;66908;50.988;4.780;2023-02-20T00:52:15;16.92;;;8.73;;
55835;SDS011;66908;50.988;4.780;2023-02-20T00:54:41;18.65;;;8.30;;
55835;SDS011;66908;50.988;4.780;2023-02-20T00:57:07;19.38;;;8.35;;
55835;SDS011;66908;50.988;4.780;2023-02-20T00:59:33;14.18;;;7.47;;
55835;SDS011;66908;50.988;4.780;2023-02-20T01:01:59;12.75;;;7.50;;
55835;SDS011;66908;50.988;4.780;2023-02-20T01:04:25;12.55;;;7.25;;
55835;SDS011;66908;50.988;4.780;2023-02-20T01:06:51;15.10;;;7.93;;
55835;SDS011;66908;50.988;4.780;2023-02-20T01:09:17;15.30;;;7.25;;
55835;SDS011;66908;50.988;4.780;2023-02-20T01:11:44;20.85;;;8.05;;
55835;SDS011;66908;50.988;4.780;2023-02-20T01:14:11;14.18;;;7.65;;
55835;SDS011;66908;50.988;4.780;2023-02-20T01:16:42;19.27;;;7.78;;
55835;SDS011;66908;50.988;4.780;2023-02-20T01:19:09;17.90;;;7.78;;
55835;SDS011;66908;50.988;4.780;2023-02-20T01:21:36;18.17;;;8.73;;
55835;SDS011;66908;50.988;4.780;2023-02-20T01:24:01;21.35;;;9.70;;
55835;SDS011;66908;50.988;4.780;2023-02-20T01:26:27;15.60;;;9.40;;
55835;SDS011;66908;50.988;4.780;2023-02-20T01:28:53;20.52;;;9.95;;
55835;SDS011;66908;50.988;4.780;2023-02-20T01:31:19;21.33;;;10.90;;
55835;SDS011;66908;50.988;4.780;2023-02-20T01:33:45;23.52;;;10.75;;
55835;SDS011;66908;50.988;4.780;2023-02-20T01:36:12;28.27;;;10.85;;
55835;SDS011;66908;50.988;4.780;2023-02-20T01:38:38;20.60;;;10.00;;
55835;SDS011;66908;50.988;4.780;2023-02-20T01:41:06;23.90;;;11.43;;
55835;SDS011;66908;50.988;4.780;2023-02-20T01:43:32;25.98;;;11.35;;
55835;SDS011;66908;50.988;4.780;2023-02-20T01:49:04;23.55;;;12.75;;
55835;SDS011;66908;50.988;4.780;2023-02-20T01:51:34;23.55;;;12.52;;
55835;SDS011;66908;50.988;4.780;2023-02-20T01:54:06;29.33;;;14.00;;
55835;SDS011;66908;50.988;4.780;2023-02-20T01:56:34;29.20;;;13.07;;
55835;SDS011;66908;50.988;4.780;2023-02-20T01:59:00;26.33;;;13.02;;
55835;SDS011;66908;50.988;4.780;2023-02-20T02:01:27;26.53;;;13.83;;
55835;SDS011;66908;50.988;4.780;2023-02-20T02:03:55;33.17;;;14.38;;
55835;SDS011;66908;50.988;4.780;2023-02-20T02:06:24;29.02;;;14.13;;
55835;SDS011;66908;50.988;4.780;2023-02-20T02:08:52;29.38;;;15.07;;
55835;SDS011;66908;50.988;4.780;2023-02-20T02:11:21;32.95;;;16.02;;
55835;SDS011;66908;50.988;4.780;2023-02-20T02:13:49;32.22;;;15.45;;
55835;SDS011;66908;50.988;4.780;2023-02-20T02:16:19;40.90;;;15.70;;
55835;SDS011;66908;50.988;4.780;2023-02-20T02:22:01;35.28;;;15.10;;
55835;SDS011;66908;50.988;4.780;2023-02-20T02:27:38;40.70;;;16.77;;
55835;SDS011;66908;50.988;4.780;2023-02-20T02:38:56;41.50;;;15.57;;
55835;SDS011;66908;50.988;4.780;2023-02-20T02:41:40;35.20;;;15.50;;
55835;SDS011;66908;50.988;4.780;2023-02-20T02:44:29;36.70;;;15.70;;
55835;SDS011;66908;50.988;4.780;2023-02-20T02:46:57;33.10;;;14.68;;
55835;SDS011;66908;50.988;4.780;2023-02-20T02:52:07;33.47;;;15.55;;
55835;SDS011;66908;50.988;4.780;2023-02-20T02:57:20;32.35;;;13.70;;
55835;SDS011;66908;50.988;4.780;2023-02-20T02:59:50;29.70;;;12.90;;
55835;SDS011;66908;50.988;4.780;2023-02-20T03:02:21;27.63;;;12.27;;
55835;SDS011;66908;50.988;4.780;2023-02-20T03:04:49;23.48;;;11.50;;
55835;SDS011;66908;50.988;4.780;2023-02-20T03:07:17;27.58;;;11.82;;
55835;SDS011;66908;50.988;4.780;2023-02-20T03:09:59;23.73;;;12.18;;
55835;SDS011;66908;50.988;4.780;2023-02-20T03:12:29;22.15;;;13.05;;
55835;SDS011;66908;50.988;4.780;2023-02-20T03:15:39;23.45;;;12.02;;
55835;SDS011;66908;50.988;4.780;2023-02-20T03:18:04;28.42;;;12.38;;
55835;SDS011;66908;50.988;4.780;2023-02-20T03:20:43;24.27;;;11.65;;
55835;SDS011;66908;50.988;4.780;2023-02-20T03:23:19;20.95;;;11.63;;
55835;SDS011;66908;50.988;4.780;2023-02-20T03:26:00;29.25;;;12.43;;
55835;SDS011;66908;50.988;4.780;2023-02-20T03:28:39;34.92;;;13.90;;
55835;SDS011;66908;50.988;4.780;2023-02-20T03:31:09;28.20;;;11.13;;
55835;SDS011;66908;50.988;4.780;2023-02-20T03:33:45;24.38;;;11.70;;
55835;SDS011;66908;50.988;4.780;2023-02-20T03:39:48;26.77;;;11.57;;
55835;SDS011;66908;50.988;4.780;2023-02-20T03:45:22;28.45;;;11.52;;
55835;SDS011;66908;50.988;4.780;2023-02-20T03:47:51;25.13;;;11.82;;
55835;SDS011;66908;50.988;4.780;2023-02-20T03:50:19;20.65;;;11.00;;
55835;SDS011;66908;50.988;4.780;2023-02-20T03:53:03;23.08;;;10.75;;
55835;SDS011;66908;50.988;4.780;2023-02-20T03:55:29;23.23;;;11.00;;
55835;SDS011;66908;50.988;4.780;2023-02-20T03:57:56;26.55;;;11.65;;
55835;SDS011;66908;50.988;4.780;2023-02-20T04:00:28;24.80;;;10.85;;
55835;SDS011;66908;50.988;4.780;2023-02-20T04:02:58;23.75;;;10.55;;
55835;SDS011;66908;50.988;4.780;2023-02-20T04:05:28;27.85;;;10.75;;
55835;SDS011;66908;50.988;4.780;2023-02-20T04:10:54;20.65;;;9.73;;
55835;SDS011;66908;50.988;4.780;2023-02-20T04:13:25;23.70;;;9.38;;
55835;SDS011;66908;50.988;4.780;2023-02-20T04:15:51;20.85;;;9.68;;
55835;SDS011;66908;50.988;4.780;2023-02-20T04:18:19;25.05;;;10.57;;
55835;SDS011;66908;50.988;4.780;2023-02-20T04:23:15;18.52;;;8.13;;
55835;SDS011;66908;50.988;4.780;2023-02-20T04:25:47;14.68;;;9.38;;
55835;SDS011;66908;50.988;4.780;2023-02-20T04:28:23;21.58;;;7.80;;
55835;SDS011;66908;50.988;4.780;2023-02-20T04:30:50;17.60;;;8.63;;
55835;SDS011;66908;50.988;4.780;2023-02-20T04:33:16;18.08;;;8.77;;
55835;SDS011;66908;50.988;4.780;2023-02-20T04:35:43;24.10;;;9.95;;
55835;SDS011;66908;50.988;4.780;2023-02-20T04:38:08;20.10;;;8.35;;
55835;SDS011;66908;50.988;4.780;2023-02-20T04:40:35;19.13;;;8.05;;
55835;SDS011;66908;50.988;4.780;2023-02-20T04:43:01;18.98;;;8.23;;
55835;SDS011;66908;50.988;4.780;2023-02-20T04:45:27;15.55;;;8.13;;
55835;SDS011;66908;50.988;4.780;2023-02-20T04:47:53;15.95;;;8.23;;
55835;SDS011;66908;50.988;4.780;2023-02-20T04:50:21;16.52;;;7.68;;
55835;SDS011;66908;50.988;4.780;2023-02-20T04:52:52;13.15;;;8.00;;
55835;SDS011;66908;50.988;4.780;2023-02-20T04:55:18;16.27;;;7.60;;
55835;SDS011;66908;50.988;4.780;2023-02-20T04:57:44;17.10;;;8.15;;
55835;SDS011;66908;50.988;4.780;2023-02-20T05:00:11;15.50;;;7.95;;
55835;SDS011;66908;50.988;4.780;2023-02-20T05:05:05;20.63;;;8.48;;
55835;SDS011;66908;50.988;4.780;2023-02-20T05:07:39;13.93;;;8.50;;
55835;SDS011;66908;50.988;4.780;2023-02-20T05:10:05;19.98;;;8.45;;
55835;SDS011;66908;50.988;4.780;2023-02-20T05:12:31;19.38;;;9.02;;
55835;SDS011;66908;50.988;4.780;2023-02-20T05:14:57;18.85;;;8.25;;
55835;SDS011;66908;50.988;4.780;2023-02-20T05:17:23;17.98;;;7.78;;
55835;SDS011;66908;50.988;4.780;2023-02-20T05:19:49;16.80;;;8.40;;
55835;SDS011;66908;50.988;4.780;2023-02-20T05:22:15;17.98;;;8.20;;
55835;SDS011;66908;50.988;4.780;2023-02-20T05:24:44;20.90;;;8.90;;
55835;SDS011;66908;50.988;4.780;2023-02-20T05:27:14;14.60;;;7.95;;
55835;SDS011;66908;50.988;4.780;2023-02-20T05:29:45;15.80;;;8.60;;
55835;SDS011;66908;50.988;4.780;2023-02-20T05:32:16;22.27;;;7.55;;
55835;SDS011;66908;50.988;4.780;2023-02-20T05:34:43;11.70;;;7.55;;
55835;SDS011;66908;50.988;4.780;2023-02-20T05:37:10;14.97;;;7.63;;
55835;SDS011;66908;50.988;4.780;2023-02-20T05:39:37;18.75;;;7.35;;
55835;SDS011;66908;50.988;4.780;2023-02-20T05:42:03;15.27;;;7.55;;
55835;SDS011;66908;50.988;4.780;2023-02-20T05:44:30;18.75;;;7.60;;
55835;SDS011;66908;50.988;4.780;2023-02-20T05:46:56;16.23;;;7.50;;
55835;SDS011;66908;50.988;4.780;2023-02-20T05:49:23;16.63;;;6.95;;
55835;SDS011;66908;50.988;4.780;2023-02-20T05:51:49;12.57;;;7.07;;
55835;SDS011;66908;50.988;4.780;2023-02-20T05:54:17;16.70;;;7.25;;
55835;SDS011;66908;50.988;4.780;2023-02-20T05:56:46;19.02;;;7.82;;
55835;SDS011;66908;50.988;4.780;2023-02-20T05:59:12;9.20;;;6.95;;
55835;SDS011;66908;50.988;4.780;2023-02-20T06:01:41;12.38;;;7.20;;
55835;SDS011;66908;50.988;4.780;2023-02-20T06:04:07;14.00;;;7.10;;
55835;SDS011;66908;50.988;4.780;2023-02-20T06:06:33;17.08;;;6.57;;
55835;SDS011;66908;50.988;4.780;2023-02-20T06:09:00;14.18;;;7.15;;
55835;SDS011;66908;50.988;4.780;2023-02-20T06:11:26;16.58;;;7.18;;
55835;SDS011;66908;50.988;4.780;2023-02-20T06:13:52;16.60;;;6.85;;
55835;SDS011;66908;50.988;4.780;2023-02-20T06:16:22;10.95;;;5.95;;
55835;SDS011;66908;50.988;4.780;2023-02-20T06:18:50;12.07;;;6.70;;
55835;SDS011;66908;50.988;4.780;2023-02-20T06:21:16;8.77;;;6.32;;
55835;SDS011;66908;50.988;4.780;2023-02-20T06:23:43;13.95;;;6.75;;
55835;SDS011;66908;50.988;4.780;2023-02-20T06:26:10;20.42;;;8.38;;
55835;SDS011;66908;50.988;4.780;2023-02-20T06:28:37;23.15;;;7.72;;
55835;SDS011;66908;50.988;4.780;2023-02-20T06:31:03;17.23;;;6.55;;
55835;SDS011;66908;50.988;4.780;2023-02-20T06:33:30;14.07;;;7.50;;
55835;SDS011;66908;50.988;4.780;2023-02-20T06:35:56;16.50;;;7.07;;
55835;SDS011;66908;50.988;4.780;2023-02-20T06:38:22;17.70;;;6.88;;
55835;SDS011;66908;50.988;4.780;2023-02-20T06:40:48;14.20;;;6.65;;
55835;SDS011;66908;50.988;4.780;2023-02-20T06:43:15;14.20;;;6.40;;
55835;SDS011;66908;50.988;4.780;2023-02-20T06:45:41;15.93;;;7.00;;
55835;SDS011;66908;50.988;4.780;2023-02-20T06:48:07;11.50;;;6.03;;
55835;SDS011;66908;50.988;4.780;2023-02-20T06:50:33;17.33;;;8.13;;
55835;SDS011;66908;50.988;4.780;2023-02-20T06:52:59;16.70;;;6.82;;
55835;SDS011;66908;50.988;4.780;2023-02-20T06:55:25;15.95;;;6.88;;
55835;SDS011;66908;50.988;4.780;2023-02-20T06:57:51;15.95;;;7.38;;
55835;SDS011;66908;50.988;4.780;2023-02-20T07:00:17;16.08;;;6.95;;
55835;SDS011;66908;50.988;4.780;2023-02-20T07:02:43;17.67;;;8.02;;
55835;SDS011;66908;50.988;4.780;2023-02-20T07:05:10;15.27;;;6.88;;
55835;SDS011;66908;50.988;4.780;2023-02-20T07:07:36;18.42;;;7.13;;
55835;SDS011;66908;50.988;4.780;2023-02-20T07:10:02;16.20;;;7.85;;
55835;SDS011;66908;50.988;4.780;2023-02-20T07:14:57;18.65;;;8.45;;
55835;SDS011;66908;50.988;4.780;2023-02-20T07:17:23;20.30;;;9.70;;
55835;SDS011;66908;50.988;4.780;2023-02-20T07:19:50;20.48;;;9.18;;
55835;SDS011;66908;50.988;4.780;2023-02-20T07:22:16;18.95;;;8.65;;
55835;SDS011;66908;50.988;4.780;2023-02-20T07:24:41;23.05;;;9.77;;
55835;SDS011;66908;50.988;4.780;2023-02-20T07:27:08;20.67;;;9.27;;
55835;SDS011;66908;50.988;4.780;2023-02-20T07:29:38;20.40;;;9.07;;
55835;SDS011;66908;50.988;4.780;2023-02-20T07:32:06;21.70;;;9.45;;
55835;SDS011;66908;50.988;4.780;2023-02-20T07:34:33;16.88;;;8.55;;
55835;SDS011;66908;50.988;4.780;2023-02-20T07:36:59;19.25;;;9.75;;
55835;SDS011;66908;50.988;4.780;2023-02-20T07:39:25;24.48;;;9.98;;
55835;SDS011;66908;50.988;4.780;2023-02-20T07:41:51;22.02;;;9.75;;
55835;SDS011;66908;50.988;4.780;2023-02-20T07:44:17;23.63;;;9.70;;
55835;SDS011;66908;50.988;4.780;2023-02-20T07:46:43;21.35;;;9.05;;
55835;SDS011;66908;50.988;4.780;2023-02-20T07:49:09;17.75;;;8.40;;
55835;SDS011;66908;50.988;4.780;2023-02-20T07:51:35;19.55;;;8.18;;
55835;SDS011;66908;50.988;4.780;2023-02-20T07:54:01;17.77;;;8.43;;
55835;SDS011;66908;50.988;4.780;2023-02-20T07:56:27;19.80;;;8.13;;
55835;SDS011;66908;50.988;4.780;2023-02-20T07:58:54;20.38;;;8.45;;
55835;SDS011;66908;50.988;4.780;2023-02-20T08:01:20;21.98;;;9.35;;
55835;SDS011;66908;50.988;4.780;2023-02-20T08:03:46;14.90;;;7.85;;
55835;SDS011;66908;50.988;4.780;2023-02-20T08:06:12;18.92;;;7.82;;
55835;SDS011;66908;50.988;4.780;2023-02-20T08:08:41;18.20;;;8.05;;
55835;SDS011;66908;50.988;4.780;2023-02-20T08:11:07;17.65;;;8.15;;
55835;SDS011;66908;50.988;4.780;2023-02-20T08:13:33;20.25;;;7.70;;
55835;SDS011;66908;50.988;4.780;2023-02-20T08:15:59;15.07;;;7.35;;
55835;SDS011;66908;50.988;4.780;2023-02-20T08:18:25;15.75;;;7.25;;
55835;SDS011;66908;50.988;4.780;2023-02-20T08:20:51;19.65;;;8.23;;
55835;SDS011;66908;50.988;4.780;2023-02-20T08:23:17;14.68;;;7.53;;
55835;SDS011;66908;50.988;4.780;2023-02-20T08:25:45;15.13;;;7.90;;
55835;SDS011;66908;50.988;4.780;2023-02-20T08:28:11;14.45;;;7.40;;
55835;SDS011;66908;50.988;4.780;2023-02-20T08:30:37;12.45;;;7.25;;
55835;SDS011;66908;50.988;4.780;2023-02-20T08:33:03;21.75;;;7.80;;
55835;SDS011;66908;50.988;4.780;2023-02-20T08:35:33;20.85;;;8.65;;
55835;SDS011;66908;50.988;4.780;2023-02-20T08:38:07;14.05;;;7.55;;
55835;SDS011;66908;50.988;4.780;2023-02-20T08:40:51;18.15;;;7.70;;
55835;SDS011;66908;50.988;4.780;2023-02-20T08:43:17;22.95;;;8.43;;
55835;SDS011;66908;50.988;4.780;2023-02-20T08:45:43;27.20;;;13.05;;
55835;SDS011;66908;50.988;4.780;2023-02-20T08:48:09;19.65;;;8.60;;
55835;SDS011;66908;50.988;4.780;2023-02-20T08:50:34;16.75;;;8.20;;
55835;SDS011;66908;50.988;4.780;2023-02-20T08:53:00;20.08;;;9.00;;
55835;SDS011;66908;50.988;4.780;2023-02-20T08:55:26;13.02;;;8.05;;
55835;SDS011;66908;50.988;4.780;2023-02-20T08:57:52;14.82;;;7.65;;
55835;SDS011;66908;50.988;4.780;2023-02-20T09:00:20;17.17;;;7.80;;
55835;SDS011;66908;50.988;4.780;2023-02-20T09:02:46;15.52;;;7.85;;
55835;SDS011;66908;50.988;4.780;2023-02-20T09:05:13;28.27;;;8.93;;
55835;SDS011;66908;50.988;4.780;2023-02-20T09:07:39;15.38;;;8.20;;
55835;SDS011;66908;50.988;4.780;2023-02-20T09:10:05;18.13;;;7.95;;
55835;SDS011;66908;50.988;4.780;2023-02-20T09:12:33;18.40;;;8.38;;
55835;SDS011;66908;50.988;4.780;2023-02-20T09:14:59;16.65;;;7.80;;
55835;SDS011;66908;50.988;4.780;2023-02-20T09:17:26;13.05;;;7.22;;
55835;SDS011;66908;50.988;4.780;2023-02-20T09:19:52;18.63;;;7.55;;
55835;SDS011;66908;50.988;4.780;2023-02-20T09:22:25;16.17;;;7.75;;
55835;SDS011;66908;50.988;4.780;2023-02-20T09:24:52;13.63;;;6.50;;
55835;SDS011;66908;50.988;4.780;2023-02-20T09:27:19;17.13;;;8.35;;
55835;SDS011;66908;50.988;4.780;2023-02-20T09:29:45;20.70;;;8.07;;
55835;SDS011;66908;50.988;4.780;2023-02-20T09:32:12;16.35;;;7.53;;
55835;SDS011;66908;50.988;4.780;2023-02-20T09:34:38;13.77;;;7.22;;
55835;SDS011;66908;50.988;4.780;2023-02-20T09:37:04;21.25;;;9.15;;
55835;SDS011;66908;50.988;4.780;2023-02-20T09:39:32;17.30;;;8.20;;
55835;SDS011;66908;50.988;4.780;2023-02-20T09:45:03;14.68;;;8.73;;
55835;SDS011;66908;50.988;4.780;2023-02-20T09:47:48;19.30;;;9.07;;
55835;SDS011;66908;50.988;4.780;2023-02-20T09:53:44;16.38;;;8.75;;
55835;SDS011;66908;50.988;4.780;2023-02-20T09:55:52;23.02;;;9.35;;
55835;SDS011;66908;50.988;4.780;2023-02-20T10:01:14;15.90;;;8.02;;
55835;SDS011;66908;50.988;4.780;2023-02-20T10:03:56;22.40;;;8.82;;
55835;SDS011;66908;50.988;4.780;2023-02-20T10:06:26;18.02;;;8.95;;
55835;SDS011;66908;50.988;4.780;2023-02-20T10:08:54;19.33;;;9.85;;
55835;SDS011;66908;50.988;4.780;2023-02-20T10:19:32;17.15;;;8.88;;
55835;SDS011;66908;50.988;4.780;2023-02-20T10:22:07;13.93;;;8.80;;
55835;SDS011;66908;50.988;4.780;2023-02-20T10:30:03;15.95;;;8.70;;
55835;SDS011;66908;50.988;4.780;2023-02-20T10:37:32;19.48;;;8.77;;
55835;SDS011;66908;50.988;4.780;2023-02-20T10:42:52;16.52;;;9.13;;
55835;SDS011;66908;50.988;4.780;2023-02-20T10:45:41;15.45;;;10.02;;
55835;SDS011;66908;50.988;4.780;2023-02-20T10:48:14;20.15;;;9.52;;
55835;SDS011;66908;50.988;4.780;2023-02-20T10:50:52;17.85;;;9.98;;
55835;SDS011;66908;50.988;4.780;2023-02-20T11:01:35;17.77;;;9.02;;
55835;SDS011;66908;50.988;4.780;2023-02-20T11:04:08;14.60;;;9.55;;
55835;SDS011;66908;50.988;4.780;2023-02-20T11:06:37;14.93;;;8.70;;
55835;SDS011;66908;50.988;4.780;2023-02-20T11:09:06;16.67;;;9.43;;
55835;SDS011;66908;50.988;4.780;2023-02-20T11:17:02;18.98;;;8.52;;
55835;SDS011;66908;50.988;4.780;2023-02-20T11:19:37;15.10;;;8.60;;
55835;SDS011;66908;50.988;4.780;2023-02-20T11:22:09;11.52;;;7.38;;
55835;SDS011;66908;50.988;4.780;2023-02-20T11:24:39;16.10;;;8.60;;
55835;SDS011;66908;50.988;4.780;2023-02-20T11:29:41;14.75;;;7.68;;
55835;SDS011;66908;50.988;4.780;2023-02-20T11:32:16;16.83;;;8.70;;
55835;SDS011;66908;50.988;4.780;2023-02-20T11:37:41;15.60;;;8.00;;
55835;SDS011;66908;50.988;4.780;2023-02-20T11:40:16;14.63;;;8.52;;
55835;SDS011;66908;50.988;4.780;2023-02-20T11:42:42;15.93;;;8.40;;
55835;SDS011;66908;50.988;4.780;2023-02-20T11:45:18;19.88;;;9.02;;
55835;SDS011;66908;50.988;4.780;2023-02-20T11:48:12;16.75;;;7.53;;
55835;SDS011;66908;50.988;4.780;2023-02-20T11:53:05;17.48;;;7.30;;
55835;SDS011;66908;50.988;4.780;2023-02-20T11:55:32;16.73;;;7.65;;
55835;SDS011;66908;50.988;4.780;2023-02-20T11:57:59;15.70;;;7.70;;
55835;SDS011;66908;50.988;4.780;2023-02-20T12:05:36;19.08;;;8.30;;
55835;SDS011;66908;50.988;4.780;2023-02-20T12:08:03;19.08;;;7.35;;
55835;SDS011;66908;50.988;4.780;2023-02-20T12:13:40;15.43;;;7.93;;
55835;SDS011;66908;50.988;4.780;2023-02-20T12:16:21;14.85;;;8.13;;
55835;SDS011;66908;50.988;4.780;2023-02-20T12:19:10;18.38;;;7.93;;
55835;SDS011;66908;50.988;4.780;2023-02-20T12:24:38;12.80;;;8.10;;
55835;SDS011;66908;50.988;4.780;2023-02-20T12:30:18;15.40;;;7.18;;
55835;SDS011;66908;50.988;4.780;2023-02-20T12:46:16;18.30;;;7.40;;
55835;SDS011;66908;50.988;4.780;2023-02-20T12:56:58;14.27;;;8.13;;
55835;SDS011;66908;50.988;4.780;2023-02-20T12:59:27;11.98;;;7.53;;
55835;SDS011;66908;50.988;4.780;2023-02-20T13:02:11;16.65;;;8.63;;
55835;SDS011;66908;50.988;4.780;2023-02-20T13:04:53;13.70;;;8.43;;
55835;SDS011;66908;50.988;4.780;2023-02-20T13:07:32;13.50;;;8.32;;
55835;SDS011;66908;50.988;4.780;2023-02-20T13:10:07;16.90;;;8.10;;
55835;SDS011;66908;50.988;4.780;2023-02-20T13:12:40;15.35;;;8.30;;
55835;SDS011;66908;50.988;4.780;2023-02-20T13:17:50;17.45;;;8.75;;
55835;SDS011;66908;50.988;4.780;2023-02-20T13:27:58;19.48;;;8.95;;
55835;SDS011;66908;50.988;4.780;2023-02-20T13:30:26;12.43;;;8.30;;
55835;SDS011;66908;50.988;4.780;2023-02-20T13:35:51;14.23;;;8.02;;
55835;SDS011;66908;50.988;4.780;2023-02-20T13:38:19;15.82;;;9.13;;
55835;SDS011;66908;50.988;4.780;2023-02-20T13:53:53;17.33;;;9.10;;
55835;SDS011;66908;50.988;4.780;2023-02-20T13:56:41;16.90;;;9.23;;
55835;SDS011;66908;50.988;4.780;2023-02-20T13:59:31;14.48;;;9.43;;
55835;SDS011;66908;50.988;4.780;2023-02-20T14:04:30;13.55;;;8.77;;
55835;SDS011;66908;50.988;4.780;2023-02-20T14:06:56;23.80;;;9.00;;
55835;SDS011;66908;50.988;4.780;2023-02-20T14:09:23;14.10;;;8.80;;
55835;SDS011;66908;50.988;4.780;2023-02-20T14:12:00;16.08;;;9.13;;
55835;SDS011;66908;50.988;4.780;2023-02-20T14:14:41;21.30;;;8.38;;
55835;SDS011;66908;50.988;4.780;2023-02-20T14:17:13;13.35;;;8.00;;
55835;SDS011;66908;50.988;4.780;2023-02-20T14:19:42;11.95;;;8.20;;
55835;SDS011;66908;50.988;4.780;2023-02-20T14:22:13;13.23;;;8.45;;
55835;SDS011;66908;50.988;4.780;2023-02-20T14:24:46;14.65;;;9.52;;
55835;SDS011;66908;50.988;4.780;2023-02-20T14:27:26;12.68;;;8.18;;
55835;SDS011;66908;50.988;4.780;2023-02-20T14:32:31;15.95;;;8.07;;
55835;SDS011;66908;50.988;4.780;2023-02-20T14:35:02;19.00;;;8.93;;
55835;SDS011;66908;50.988;4.780;2023-02-20T14:37:57;59.95;;;26.20;;
55835;SDS011;66908;50.988;4.780;2023-02-20T14:40:34;15.35;;;9.18;;
55835;SDS011;66908;50.988;4.780;2023-02-20T14:43:03;14.52;;;8.55;;
55835;SDS011;66908;50.988;4.780;2023-02-20T14:45:46;16.08;;;8.90;;
55835;SDS011;66908;50.988;4.780;2023-02-20T14:48:24;14.88;;;8.52;;
55835;SDS011;66908;50.988;4.780;2023-02-20T14:51:02;13.38;;;9.00;;
55835;SDS011;66908;50.988;4.780;2023-02-20T14:53:33;21.52;;;8.90;;
55835;SDS011;66908;50.988;4.780;2023-02-20T14:56:10;13.88;;;7.80;;
55835;SDS011;66908;50.988;4.780;2023-02-20T14:58:38;10.68;;;8.45;;
55835;SDS011;66908;50.988;4.780;2023-02-20T15:01:16;17.83;;;9.15;;
55835;SDS011;66908;50.988;4.780;2023-02-20T15:04:12;13.40;;;8.13;;
55835;SDS011;66908;50.988;4.780;2023-02-20T15:06:42;17.05;;;8.52;;
55835;SDS011;66908;50.988;4.780;2023-02-20T15:09:10;22.52;;;9.73;;
55835;SDS011;66908;50.988;4.780;2023-02-20T15:11:47;11.82;;;7.93;;
55835;SDS011;66908;50.988;4.780;2023-02-20T15:14:25;13.65;;;8.27;;
55835;SDS011;66908;50.988;4.780;2023-02-20T15:17:13;16.65;;;8.18;;
55835;SDS011;66908;50.988;4.780;2023-02-20T15:19:46;16.85;;;8.77;;
55835;SDS011;66908;50.988;4.780;2023-02-20T15:22:32;15.00;;;8.03;;
55835;SDS011;66908;50.988;4.780;2023-02-20T15:28:05;18.60;;;8.48;;
55835;SDS011;66908;50.988;4.780;2023-02-20T15:30:33;19.30;;;8.60;;
55835;SDS011;66908;50.988;4.780;2023-02-20T15:32:59;13.13;;;8.27;;
55835;SDS011;66908;50.988;4.780;2023-02-20T15:35:26;11.25;;;7.90;;
55835;SDS011;66908;50.988;4.780;2023-02-20T15:37:55;11.77;;;8.20;;
55835;SDS011;66908;50.988;4.780;2023-02-20T15:40:24;14.90;;;7.97;;
55835;SDS011;66908;50.988;4.780;2023-02-20T15:42:52;12.15;;;8.07;;
55835;SDS011;66908;50.988;4.780;2023-02-20T15:45:21;11.55;;;7.63;;
55835;SDS011;66908;50.988;4.780;2023-02-20T15:47:48;19.08;;;8.52;;
55835;SDS011;66908;50.988;4.780;2023-02-20T15:50:14;18.50;;;9.55;;
55835;SDS011;66908;50.988;4.780;2023-02-20T15:52:40;18.50;;;8.07;;
55835;SDS011;66908;50.988;4.780;2023-02-20T15:55:06;16.73;;;8.80;;
55835;SDS011;66908;50.988;4.780;2023-02-20T15:57:41;14.38;;;7.63;;
55835;SDS011;66908;50.988;4.780;2023-02-20T16:00:07;13.27;;;7.97;;
55835;SDS011;66908;50.988;4.780;2023-02-20T16:02:35;12.15;;;7.18;;
55835;SDS011;66908;50.988;4.780;2023-02-20T16:05:01;14.10;;;8.23;;
55835;SDS011;66908;50.988;4.780;2023-02-20T16:07:26;13.02;;;7.80;;
55835;SDS011;66908;50.988;4.780;2023-02-20T16:09:52;12.50;;;7.35;;
55835;SDS011;66908;50.988;4.780;2023-02-20T16:12:20;13.32;;;8.40;;
55835;SDS011;66908;50.988;4.780;2023-02-20T16:14:52;12.90;;;7.43;;
55835;SDS011;66908;50.988;4.780;2023-02-20T16:17:27;14.93;;;7.43;;
55835;SDS011;66908;50.988;4.780;2023-02-20T16:19:56;14.27;;;7.00;;
55835;SDS011;66908;50.988;4.780;2023-02-20T16:22:21;9.82;;;7.32;;
55835;SDS011;66908;50.988;4.780;2023-02-20T16:24:47;17.63;;;9.60;;
55835;SDS011;66908;50.988;4.780;2023-02-20T16:27:23;16.05;;;7.40;;
55835;SDS011;66908;50.988;4.780;2023-02-20T16:29:51;12.05;;;7.70;;
55835;SDS011;66908;50.988;4.780;2023-02-20T16:32:21;13.15;;;7.97;;
55835;SDS011;66908;50.988;4.780;2023-02-20T16:34:55;12.05;;;8.45;;
55835;SDS011;66908;50.988;4.780;2023-02-20T16:37:22;9.43;;;6.93;;
55835;SDS011;66908;50.988;4.780;2023-02-20T16:39:49;12.35;;;7.32;;
55835;SDS011;66908;50.988;4.780;2023-02-20T16:44:41;13.25;;;7.20;;
55835;SDS011;66908;50.988;4.780;2023-02-20T16:47:28;15.77;;;8.07;;
55835;SDS011;66908;50.988;4.780;2023-02-20T16:49:55;16.85;;;8.02;;
55835;SDS011;66908;50.988;4.780;2023-02-20T16:52:27;12.05;;;7.78;;
55835;SDS011;66908;50.988;4.780;2023-02-20T16:54:55;11.65;;;8.18;;
55835;SDS011;66908;50.988;4.780;2023-02-20T16:57:23;14.40;;;8.35;;
55835;SDS011;66908;50.988;4.780;2023-02-20T16:59:53;11.68;;;7.97;;
55835;SDS011;66908;50.988;4.780;2023-02-20T17:02:23;16.38;;;8.07;;
55835;SDS011;66908;50.988;4.780;2023-02-20T17:04:51;13.52;;;8.70;;
55835;SDS011;66908;50.988;4.780;2023-02-20T17:07:17;14.68;;;9.15;;
55835;SDS011;66908;50.988;4.780;2023-02-20T17:09:43;15.35;;;8.18;;
55835;SDS011;66908;50.988;4.780;2023-02-20T17:12:10;18.65;;;10.55;;
55835;SDS011;66908;50.988;4.780;2023-02-20T17:14:37;14.13;;;8.05;;
55835;SDS011;66908;50.988;4.780;2023-02-20T17:17:03;13.77;;;8.45;;
55835;SDS011;66908;50.988;4.780;2023-02-20T17:19:31;16.15;;;9.35;;
55835;SDS011;66908;50.988;4.780;2023-02-20T17:21:57;25.25;;;9.52;;
55835;SDS011;66908;50.988;4.780;2023-02-20T17:24:24;15.85;;;9.95;;
55835;SDS011;66908;50.988;4.780;2023-02-20T17:26:50;21.92;;;8.23;;
55835;SDS011;66908;50.988;4.780;2023-02-20T17:29:16;12.43;;;8.60;;
55835;SDS011;66908;50.988;4.780;2023-02-20T17:31:42;15.80;;;9.70;;